Time;durP1;ratioP1;P1;durP2;ratioP2;P2;SDS_P1;SDS_P2;PMS_P1;PMS_P2;Temp;Humidity;BMP_temperature;BMP_pressure;BME280_temperature;BME280_humidity;BME280_pressure;Samples;Min_cycle;Max_cycle;Signal;HPM_P1;HPM_P2
2022/11/20 00:02:10;;;;;;;;;;;;;;;1.60;92.84;101423.09;5052918;28;20238;-86
2022/11/20 00:04:35;;;;;;;;;;;;;;;1.58;92.82;101438.56;5052732;28;19948;-86
2022/11/20 00:07:01;;;;;;;;;;;;;;;1.57;92.82;101439.44;5053125;28;20051;-86
2022/11/20 00:09:26;;;;;;;;;;;;;;;1.56;92.80;101440.28;5055035;28;19931;-86
2022/11/20 00:11:51;;;;;;;;;;;;;;;1.56;92.90;101439.44;5053122;28;19920;-86
2022/11/20 00:14:16;;;;;;;;;;;;;;;1.55;92.89;101430.81;5053569;28;19988;-86
2022/11/20 00:16:42;;;;;;;;;;;;;;;1.54;93.00;101423.94;5053058;28;19947;-86
2022/11/20 00:19:07;;;;;;;;;;;;;;;1.52;92.92;101420.47;5052125;28;20200;-86
2022/11/20 00:21:32;;;;;;;;;;;;;;;1.50;92.86;101410.13;5053475;28;19936;-86
2022/11/20 00:23:58;;;;;;;;;;;;;;;1.49;92.91;101410.13;5046647;28;19924;-86
2022/11/20 00:26:24;;;;;;;;;;;;;;;1.47;92.82;101417.00;5056849;28;19915;-86
2022/11/20 00:28:53;;;;;;;;;;;;;;;1.46;92.86;101421.31;5054540;28;20396;-86
2022/11/20 00:31:19;;;;;;;;;;;;;;;1.44;92.81;101420.44;5055370;28;19923;-86
2022/11/20 00:33:44;;;;;;;;;;;;;;;1.43;92.85;101420.41;5056256;28;19929;-86
2022/11/20 00:36:20;;;;;;;;;;;;;;;1.42;92.90;101414.41;5072022;28;19916;-86
2022/11/20 00:38:46;;;;;;;;;;;;;;;1.40;92.96;101413.53;5059011;28;19943;-86
2022/11/20 00:41:13;;;;;;;;;;;;;;;1.39;92.83;101406.63;5059648;28;20216;-86
2022/11/20 00:43:39;;;;;;;;;;;;;;;1.38;92.75;101396.28;5075707;28;19920;-86
2022/11/20 00:46:05;;;;;;;;;;;;;;;1.35;92.83;101399.72;5059423;28;20264;-86
2022/11/20 00:48:31;;;;;;;;;;;;;;;1.33;92.83;101398.88;5058983;28;19931;-86
2022/11/20 00:50:57;;;;;;;;;;;;;;;1.32;92.76;101408.31;5060485;28;19913;-86
2022/11/20 00:53:23;;;;;;;;;;;;;;;1.32;92.97;101407.44;5055786;28;19933;-86
2022/11/20 00:55:54;;;;;;;;;;;;;;;1.30;92.98;101404.00;5056230;28;19925;-86
2022/11/20 00:58:19;;;;;;;;;;;;;;;1.28;93.00;101408.28;5058969;28;19909;-86
2022/11/20 01:00:45;;;;;;;;;;;;;;;1.28;93.02;101405.72;5060784;28;20222;-86
2022/11/20 01:03:10;;;;;;;;;;;;;;;1.26;92.89;101407.41;5058660;28;20112;-86
2022/11/20 01:05:35;;;;;;;;;;;;;;;1.25;92.92;101411.69;5060089;28;19913;-86
2022/11/20 01:08:01;;;;;;;;;;;;;;;1.23;93.18;101413.41;5060312;28;20453;-86
2022/11/20 01:10:26;;;;;;;;;;;;;;;1.23;93.17;101417.72;5052903;28;19921;-86
2022/11/20 01:13:36;;;;;;;;;;;;;;;1.21;93.19;101422.84;5058763;28;19925;-86
2022/11/20 01:15:36;;;;;;;;;;;;;;;1.20;93.16;101418.56;5059898;28;19940;-86
2022/11/20 01:18:02;;;;;;;;;;;;;;;1.18;92.92;101398.75;5041641;28;19925;-86
2022/11/20 01:20:27;;;;;;;;;;;;;;;1.15;92.92;101394.44;5058869;28;19921;-86
2022/11/20 01:22:52;;;;;;;;;;;;;;;1.12;92.76;101386.66;5042124;28;19960;-86
2022/11/20 01:25:17;;;;;;;;;;;;;;;1.11;92.79;101385.81;5051251;28;19964;-86
2022/11/20 01:27:43;;;;;;;;;;;;;;;1.10;93.04;101398.69;5056355;28;20105;-86
2022/11/20 01:30:08;;;;;;;;;;;;;;;1.09;93.10;101405.59;5057363;28;20262;-86
2022/11/20 01:32:33;;;;;;;;;;;;;;;1.09;93.12;101400.44;5059155;28;19974;-86
2022/11/20 01:34:59;;;;;;;;;;;;;;;1.08;93.14;101397.81;5049738;28;20073;-85
2022/11/20 01:37:24;;;;;;;;;;;;;;;1.07;93.18;101404.69;5060092;28;20112;-86
2022/11/20 01:39:49;;;;;;;;;;;;;;;1.06;93.15;101400.38;5039653;28;19925;-86
2022/11/20 01:44:59;;;;;;;;;;;;;;;1.02;93.14;101390.03;5057877;28;19970;-86
2022/11/20 01:47:31;;;;;;;;;;;;;;;1.01;93.03;101391.75;5058860;28;20098;-86
2022/11/20 01:50:05;;;;;;;;;;;;;;;1.00;93.04;101394.31;5057034;28;19948;-86
2022/11/20 01:52:36;;;;;;;;;;;;;;;0.99;93.05;101387.44;5075549;28;19966;-86
2022/11/20 01:55:04;;;;;;;;;;;;;;;0.97;93.13;101382.25;5058641;28;20326;-86
2022/11/20 01:57:31;;;;;;;;;;;;;;;0.96;93.10;101388.25;5059511;28;20251;-86
2022/11/20 02:00:03;;;;;;;;;;;;;;;0.94;93.03;101388.25;5059484;28;20142;-86
2022/11/20 02:05:33;;;;;;;;;;;;;;;0.91;93.14;101395.09;5054798;28;19915;-85
2022/11/20 02:07:59;;;;;;;;;;;;;;;0.89;93.03;101389.94;5064422;28;20160;-85
2022/11/20 02:10:27;;;;;;;;;;;;;;;0.89;93.24;101389.06;5063473;28;19913;-85
2022/11/20 02:15:36;;;;;;;;;;;;;;;0.85;93.15;101392.47;5065253;28;19924;-85
2022/11/20 02:18:01;;;;;;;;;;;;;;;0.84;93.23;101388.19;5060968;28;19951;-85
2022/11/20 02:20:28;;;;;;;;;;;;;;;0.82;93.28;101388.16;5044386;28;19932;-86
2022/11/20 02:22:57;;;;;;;;;;;;;;;0.82;93.19;101384.72;5046034;28;19988;-85
2022/11/20 02:25:23;;;;;;;;;;;;;;;0.81;93.20;101381.28;5060533;28;19913;-85
2022/11/20 02:27:48;;;;;;;;;;;;;;;0.80;93.26;101376.09;5045782;28;20224;-86
2022/11/20 02:30:17;;;;;;;;;;;;;;;0.78;93.33;101376.09;5044411;28;20120;-85
2022/11/20 02:32:42;;;;;;;;;;;;;;;0.76;93.47;101376.09;5045748;28;20271;-85
2022/11/20 02:35:10;;;;;;;;;;;;;;;0.76;93.46;101380.38;5061700;28;19917;-85
2022/11/20 02:37:38;;;;;;;;;;;;;;;0.74;93.46;101370.03;5060962;28;19921;-85
2022/11/20 02:40:03;;;;;;;;;;;;;;;0.74;93.67;101375.19;5044634;28;19909;-85
2022/11/20 02:42:30;;;;;;;;;;;;;;;0.72;93.62;101365.72;5068791;28;19920;-86
2022/11/20 02:44:55;;;;;;;;;;;;;;;0.72;93.67;101364.00;5063914;28;19920;-85
2022/11/20 02:47:21;;;;;;;;;;;;;;;0.72;93.84;101363.16;5046071;28;19921;-85
2022/11/20 02:49:46;;;;;;;;;;;;;;;0.70;93.85;101363.13;5063799;28;19931;-86
2022/11/20 02:52:11;;;;;;;;;;;;;;;0.70;93.88;101357.13;5063428;28;19912;-85
2022/11/20 02:54:38;;;;;;;;;;;;;;;0.70;94.08;101363.13;5064715;28;19952;-86
2022/11/20 02:57:03;;;;;;;;;;;;;;;0.68;93.95;101361.41;5062757;28;19975;-85
2022/11/20 02:59:28;;;;;;;;;;;;;;;0.68;94.22;101357.09;5064830;28;19921;-85
2022/11/20 03:01:54;;;;;;;;;;;;;;;0.67;94.20;101354.50;5062884;28;20155;-85
2022/11/20 03:04:19;;;;;;;;;;;;;;;0.68;94.38;101353.69;5040125;28;19921;-87
2022/11/20 03:06:45;;;;;;;;;;;;;;;0.67;94.43;101351.94;5053306;28;19916;-86
2022/11/20 03:09:12;;;;;;;;;;;;;;;0.66;94.37;101339.91;5056191;28;19917;-87
2022/11/20 03:11:37;;;;;;;;;;;;;;;0.64;94.46;101327.00;5058363;28;20122;-86
2022/11/20 03:14:03;;;;;;;;;;;;;;;0.63;94.50;101325.25;5044156;28;19924;-86
2022/11/20 03:16:28;;;;;;;;;;;;;;;0.62;94.64;101328.72;5038197;28;19924;-86
2022/11/20 03:18:53;;;;;;;;;;;;;;;0.62;94.76;101327.81;5049504;28;19921;-86
2022/11/20 03:21:19;;;;;;;;;;;;;;;0.61;94.80;101326.13;5056292;28;19932;-87
2022/11/20 03:23:44;;;;;;;;;;;;;;;0.61;94.73;101326.13;5049227;28;19921;-86
2022/11/20 03:26:15;;;;;;;;;;;;;;;0.59;94.88;101320.94;5037977;28;20027;-86
2022/11/20 03:28:42;;;;;;;;;;;;;;;0.59;94.84;101320.09;5044887;28;19924;-87
2022/11/20 03:31:09;;;;;;;;;;;;;;;0.57;94.87;101326.09;5057721;28;20250;-87
2022/11/20 03:33:34;;;;;;;;;;;;;;;0.56;94.99;101324.38;5052467;28;19980;-86
2022/11/20 03:36:07;;;;;;;;;;;;;;;0.56;95.08;101316.63;5041451;28;19932;-86
2022/11/20 03:38:32;;;;;;;;;;;;;;;0.55;95.07;101317.47;5041885;28;19917;-87
2022/11/20 03:41:00;;;;;;;;;;;;;;;0.55;95.00;101321.78;5054273;28;20298;-86
2022/11/20 03:43:25;;;;;;;;;;;;;;;0.54;95.15;101318.31;5055237;28;19925;-87
2022/11/20 03:45:51;;;;;;;;;;;;;;;0.55;95.23;101311.47;5037076;28;20209;-87
2022/11/20 03:48:16;;;;;;;;;;;;;;;0.53;95.41;101313.19;5036231;28;19948;-86
2022/11/20 03:50:41;;;;;;;;;;;;;;;0.51;95.42;101313.16;5056036;28;19916;-86
2022/11/20 03:53:06;;;;;;;;;;;;;;;0.50;95.37;101314.00;5055826;28;20176;-86
2022/11/20 03:55:32;;;;;;;;;;;;;;;0.49;95.47;101307.13;5040329;28;20101;-87
2022/11/20 03:57:57;;;;;;;;;;;;;;;0.48;95.42;101297.66;5037822;28;20000;-86
2022/11/20 04:00:22;;;;;;;;;;;;;;;0.47;95.44;101288.19;5048930;28;20108;-86
2022/11/20 04:02:47;;;;;;;;;;;;;;;0.46;95.46;101283.03;5057385;28;19992;-86
2022/11/20 04:05:13;;;;;;;;;;;;;;;0.45;95.43;101278.72;5030076;28;20208;-86
2022/11/20 04:07:38;;;;;;;;;;;;;;;0.44;95.38;101277.00;5039926;28;19920;-86
2022/11/20 04:10:04;;;;;;;;;;;;;;;0.42;95.44;101274.44;5049235;28;19999;-87
2022/11/20 04:12:33;;;;;;;;;;;;;;;0.42;95.52;101273.53;5052305;28;19925;-86
2022/11/20 04:14:59;;;;;;;;;;;;;;;0.40;95.75;101268.41;5037346;28;19921;-86
2022/11/20 04:17:24;;;;;;;;;;;;;;;0.41;95.55;101258.94;5037321;28;19959;-86
2022/11/20 04:19:49;;;;;;;;;;;;;;;0.40;95.83;101260.66;5041212;28;19951;-86
2022/11/20 04:22:15;;;;;;;;;;;;;;;0.38;95.69;101255.50;5055554;28;19931;-87
2022/11/20 04:24:40;;;;;;;;;;;;;;;0.38;95.87;101257.19;5055966;28;19940;-86
2022/11/20 04:27:05;;;;;;;;;;;;;;;0.38;95.81;101254.63;5038850;28;19947;-86
2022/11/20 04:29:31;;;;;;;;;;;;;;;0.38;95.87;101259.78;5056505;28;19924;-87
2022/11/20 04:31:56;;;;;;;;;;;;;;;0.37;96.06;101266.66;5055130;28;19927;-86
2022/11/20 04:34:21;;;;;;;;;;;;;;;0.37;95.88;101263.22;5056513;28;19954;-87
2022/11/20 04:36:47;;;;;;;;;;;;;;;0.35;96.02;101263.19;5054637;28;19912;-86
2022/11/20 04:39:14;;;;;;;;;;;;;;;0.35;96.06;101260.63;5056522;28;19917;-86
2022/11/20 04:41:39;;;;;;;;;;;;;;;0.35;96.14;101264.91;5052430;28;19925;-86
2022/11/20 04:44:05;;;;;;;;;;;;;;;0.34;96.17;101265.75;5036531;28;19931;-86
2022/11/20 04:46:35;;;;;;;;;;;;;;;0.34;96.21;101270.91;5047843;28;19920;-86
2022/11/20 04:49:00;;;;;;;;;;;;;;;0.33;96.37;101269.19;5055536;28;20163;-86
2022/11/20 04:51:26;;;;;;;;;;;;;;;0.33;96.44;101266.63;5047644;28;20174;-87
2022/11/20 04:53:51;;;;;;;;;;;;;;;0.32;96.44;101250.28;5037044;28;20262;-86
2022/11/20 04:56:16;;;;;;;;;;;;;;;0.32;96.45;101258.00;5058038;28;19987;-86
2022/11/20 04:58:41;;;;;;;;;;;;;;;0.30;96.50;101256.28;5038828;28;19913;-86
2022/11/20 05:01:09;;;;;;;;;;;;;;;0.29;96.49;101249.38;5055033;28;19925;-86
2022/11/20 05:03:34;;;;;;;;;;;;;;;0.30;96.48;101253.72;5056745;28;19940;-86
2022/11/20 05:06:01;;;;;;;;;;;;;;;0.27;96.49;101248.53;5056070;28;20120;-86
2022/11/20 05:08:26;;;;;;;;;;;;;;;0.26;96.49;101250.25;5056016;28;19913;-86
2022/11/20 05:10:51;;;;;;;;;;;;;;;0.25;96.52;101257.94;5055748;28;19932;-87
2022/11/20 05:13:17;;;;;;;;;;;;;;;0.23;96.52;101257.06;5038135;28;19929;-86
2022/11/20 05:15:42;;;;;;;;;;;;;;;0.22;96.48;101263.06;5036007;28;19949;-86
2022/11/20 05:18:07;;;;;;;;;;;;;;;0.22;96.67;101265.66;5050512;28;19924;-86
2022/11/20 05:20:33;;;;;;;;;;;;;;;0.21;96.48;101274.25;5055608;28;20246;-86
2022/11/20 05:22:58;;;;;;;;;;;;;;;0.19;96.60;101269.06;5051650;28;19921;-86
2022/11/20 05:25:24;;;;;;;;;;;;;;;0.19;96.57;101263.91;5040236;28;20108;-86
2022/11/20 05:27:49;;;;;;;;;;;;;;;0.18;96.69;101259.59;5050373;28;20199;-86
2022/11/20 05:30:14;;;;;;;;;;;;;;;0.17;96.84;101261.31;5059904;28;20184;-86
2022/11/20 05:32:40;;;;;;;;;;;;;;;0.16;96.59;101258.72;5053277;28;19924;-86
2022/11/20 05:35:05;;;;;;;;;;;;;;;0.16;96.86;101266.47;5041023;28;20196;-86
2022/11/20 05:37:30;;;;;;;;;;;;;;;0.15;96.85;101252.72;5058784;28;20352;-86
2022/11/20 05:39:56;;;;;;;;;;;;;;;0.16;96.82;101262.19;5060056;28;20200;-86
2022/11/20 05:42:30;;;;;;;;;;;;;;;0.16;96.96;101256.16;5058963;28;20147;-86
2022/11/20 05:44:56;;;;;;;;;;;;;;;0.16;96.96;101240.69;5059982;28;19927;-86
2022/11/20 05:47:21;;;;;;;;;;;;;;;0.15;97.03;101231.25;5058911;28;19913;-86
2022/11/20 05:49:46;;;;;;;;;;;;;;;0.15;97.04;101232.13;5040314;28;19921;-86
2022/11/20 05:52:11;;;;;;;;;;;;;;;0.15;97.10;101231.25;5039420;28;19976;-86
2022/11/20 05:54:36;;;;;;;;;;;;;;;0.15;97.29;101234.69;5039111;28;19913;-86
2022/11/20 05:57:02;;;;;;;;;;;;;;;0.15;97.35;101232.13;5055161;28;19932;-87
2022/11/20 05:59:27;;;;;;;;;;;;;;;0.15;97.34;101226.97;5040176;28;20250;-86
2022/11/20 06:01:52;;;;;;;;;;;;;;;0.15;97.28;101224.38;5038866;28;19921;-86
2022/11/20 06:04:18;;;;;;;;;;;;;;;0.13;97.36;101210.63;5038380;28;19932;-86
2022/11/20 06:06:43;;;;;;;;;;;;;;;0.14;97.53;101217.50;5054429;28;19925;-86
2022/11/20 06:09:08;;;;;;;;;;;;;;;0.14;97.50;101203.75;5054772;28;20155;-86
2022/11/20 06:11:34;;;;;;;;;;;;;;;0.12;97.51;101206.31;5039708;28;19925;-86
2022/11/20 06:13:59;;;;;;;;;;;;;;;0.12;97.61;101202.91;5045260;28;19909;-87
2022/11/20 06:16:24;;;;;;;;;;;;;;;0.12;97.63;101200.31;5059357;28;19924;-86
2022/11/20 06:18:49;;;;;;;;;;;;;;;0.12;97.66;101200.31;5055414;28;20200;-86
2022/11/20 06:21:16;;;;;;;;;;;;;;;0.13;97.74;101199.47;5038936;28;20244;-86
2022/11/20 06:23:42;;;;;;;;;;;;;;;0.14;97.72;101203.75;5040310;28;19916;-86
2022/11/20 06:26:08;;;;;;;;;;;;;;;0.12;97.92;101192.59;5059243;28;19916;-86
2022/11/20 06:28:34;;;;;;;;;;;;;;;0.13;98.03;101196.91;5059138;28;19931;-86
2022/11/20 06:30:59;;;;;;;;;;;;;;;0.13;97.95;101194.34;5039925;28;20232;-86
2022/11/20 06:33:25;;;;;;;;;;;;;;;0.13;98.10;101196.91;5054669;28;19925;-86
2022/11/20 06:35:50;;;;;;;;;;;;;;;0.12;97.93;101192.59;5055283;28;19920;-86
2022/11/20 06:38:15;;;;;;;;;;;;;;;0.13;98.03;101191.75;5058488;28;19996;-86
2022/11/20 06:40:41;;;;;;;;;;;;;;;0.13;98.21;101196.91;5058110;28;20042;-86
2022/11/20 06:43:06;;;;;;;;;;;;;;;0.13;98.14;101202.91;5058673;28;19908;-86
2022/11/20 06:45:32;;;;;;;;;;;;;;;0.13;98.24;101199.47;5050303;28;19920;-86
2022/11/20 06:47:58;;;;;;;;;;;;;;;0.14;98.26;101201.19;5057921;28;19913;-86
2022/11/20 06:50:23;;;;;;;;;;;;;;;0.14;98.34;101190.88;5057303;28;19953;-86
2022/11/20 06:52:48;;;;;;;;;;;;;;;0.15;98.43;101195.19;5058929;28;19940;-86
2022/11/20 06:55:13;;;;;;;;;;;;;;;0.15;98.49;101190.91;5057512;28;19955;-86
2022/11/20 06:57:38;;;;;;;;;;;;;;;0.15;98.63;101183.19;5058309;28;19951;-86
2022/11/20 07:00:04;;;;;;;;;;;;;;;0.16;98.54;101184.91;5052118;28;20101;-86
2022/11/20 07:02:29;;;;;;;;;;;;;;;0.17;98.73;101184.06;5038787;28;19928;-86
2022/11/20 07:04:55;;;;;;;;;;;;;;;0.18;98.91;101178.06;5056392;28;19952;-86
2022/11/20 07:07:20;;;;;;;;;;;;;;;0.19;98.92;101190.06;5056792;28;20183;-86
2022/11/20 07:09:45;;;;;;;;;;;;;;;0.21;99.16;101184.09;5057973;28;20026;-86
2022/11/20 07:12:10;;;;;;;;;;;;;;;0.21;99.13;101179.78;5056286;28;20183;-86
2022/11/20 07:14:36;;;;;;;;;;;;;;;0.22;99.32;101173.78;5058150;28;19920;-86
2022/11/20 07:17:01;;;;;;;;;;;;;;;0.23;99.35;101179.81;5047568;28;19928;-86
2022/11/20 07:19:26;;;;;;;;;;;;;;;0.25;99.32;101193.53;5058099;28;20257;-86
2022/11/20 07:21:52;;;;;;;;;;;;;;;0.25;99.38;101188.41;5036968;28;19924;-86
2022/11/20 07:24:17;;;;;;;;;;;;;;;0.26;99.53;101196.13;5053300;28;19925;-86
2022/11/20 07:26:42;;;;;;;;;;;;;;;0.28;99.65;101197.00;5050471;28;19925;-86
2022/11/20 07:29:07;;;;;;;;;;;;;;;0.29;99.55;101184.97;5053253;28;19967;-86
2022/11/20 07:31:33;;;;;;;;;;;;;;;0.30;99.60;101179.84;5048164;28;19964;-86
2022/11/20 07:34:00;;;;;;;;;;;;;;;0.31;99.78;101180.69;5055829;28;20405;-86
2022/11/20 07:36:25;;;;;;;;;;;;;;;0.32;99.70;101185.88;5056270;28;19923;-86
2022/11/20 07:38:51;;;;;;;;;;;;;;;0.33;99.74;101185.03;5056317;28;20108;-86
2022/11/20 07:41:16;;;;;;;;;;;;;;;0.34;99.92;101185.88;5039061;28;19920;-87
2022/11/20 07:43:41;;;;;;;;;;;;;;;0.36;99.92;101189.31;5057772;28;19967;-86
2022/11/20 07:46:06;;;;;;;;;;;;;;;0.36;100.00;101194.47;5055217;28;20323;-86
2022/11/20 07:48:32;;;;;;;;;;;;;;;0.38;100.00;101198.81;5053081;28;19929;-86
2022/11/20 07:50:57;;;;;;;;;;;;;;;0.39;100.00;101194.50;5048587;28;20251;-87
2022/11/20 07:53:23;;;;;;;;;;;;;;;0.42;100.00;101193.66;5045141;28;20692;-86
2022/11/20 07:55:48;;;;;;;;;;;;;;;0.43;100.00;101195.41;5048368;28;19931;-86
2022/11/20 07:58:14;;;;;;;;;;;;;;;0.43;100.00;101193.66;5053808;28;19948;-87
2022/11/20 08:00:40;;;;;;;;;;;;;;;0.44;100.00;101191.94;5056865;28;19921;-87
2022/11/20 08:03:05;;;;;;;;;;;;;;;0.46;100.00;101185.13;5057018;28;19930;-86
2022/11/20 08:05:30;;;;;;;;;;;;;;;0.47;100.00;101182.53;5052966;28;19976;-86
2022/11/20 08:07:56;;;;;;;;;;;;;;;0.49;100.00;101182.53;5046884;28;19932;-86
2022/11/20 08:10:21;;;;;;;;;;;;;;;0.51;100.00;101178.25;5053150;28;20310;-87
2022/11/20 08:15:31;;;;;;;;;;;;;;;0.55;100.00;101174.88;5041009;28;19982;-86
2022/11/20 08:18:07;;;;;;;;;;;;;;;0.57;100.00;101170.56;5066824;28;19925;-87
2022/11/20 08:20:33;;;;;;;;;;;;;;;0.57;100.00;101166.28;5047921;28;20200;-86
2022/11/20 08:23:03;;;;;;;;;;;;;;;0.60;100.00;101162.88;5046554;28;20224;-87
2022/11/20 08:25:29;;;;;;;;;;;;;;;0.62;100.00;101168.00;5046921;28;19913;-86
2022/11/20 08:27:56;;;;;;;;;;;;;;;0.63;100.00;101169.75;5045896;28;19971;-87
2022/11/20 08:30:21;;;;;;;;;;;;;;;0.64;100.00;101168.88;5053841;28;19924;-86
2022/11/20 08:32:46;;;;;;;;;;;;;;;0.67;100.00;101163.75;5055027;28;19925;-87
2022/11/20 08:35:12;;;;;;;;;;;;;;;0.69;100.00;101167.19;5038338;28;19925;-88
2022/11/20 08:37:41;;;;;;;;;;;;;;;0.70;100.00;101174.09;5045422;28;20255;-88
2022/11/20 08:40:06;;;;;;;;;;;;;;;0.71;100.00;101173.22;5055372;28;20256;-88
2022/11/20 08:42:32;;;;;;;;;;;;;;;0.73;100.00;101168.94;5055374;28;19924;-88
2022/11/20 08:44:57;;;;;;;;;;;;;;;0.74;100.00;101165.50;5050853;28;19921;-87
2022/11/20 08:47:22;;;;;;;;;;;;;;;0.76;100.00;101174.09;5043816;28;19975;-88
2022/11/20 08:49:47;;;;;;;;;;;;;;;0.78;100.00;101174.97;5055030;28;19982;-88
2022/11/20 08:52:13;;;;;;;;;;;;;;;0.78;100.00;101169.81;5038121;28;19925;-88
2022/11/20 08:54:38;;;;;;;;;;;;;;;0.81;100.00;101166.41;5052938;28;20257;-88
2022/11/20 08:57:03;;;;;;;;;;;;;;;0.81;100.00;101167.25;5052451;28;19927;-88
2022/11/20 08:59:29;;;;;;;;;;;;;;;0.83;100.00;101168.13;5055544;28;20292;-88
2022/11/20 09:01:55;;;;;;;;;;;;;;;0.84;100.00;101159.53;5029359;28;20110;-88
2022/11/20 09:04:20;;;;;;;;;;;;;;;0.86;100.00;101155.25;5055328;28;20168;-88
2022/11/20 09:06:45;;;;;;;;;;;;;;;0.89;100.00;101146.66;5053741;28;20216;-88
2022/11/20 09:09:10;;;;;;;;;;;;;;;0.90;100.00;101146.66;5055700;28;19983;-88
2022/11/20 09:11:36;;;;;;;;;;;;;;;0.91;100.00;101147.53;5036226;28;19952;-88
2022/11/20 09:14:02;;;;;;;;;;;;;;;0.94;100.00;101147.53;5049204;28;19913;-88
2022/11/20 09:16:27;;;;;;;;;;;;;;;0.94;100.00;101143.22;5055747;28;19925;-88
2022/11/20 09:18:53;;;;;;;;;;;;;;;0.97;100.00;101142.41;5069579;28;19923;-87
2022/11/20 09:21:18;;;;;;;;;;;;;;;1.01;100.00;101140.69;5057194;28;20123;-88
2022/11/20 09:23:43;;;;;;;;;;;;;;;1.03;100.00;101136.41;5055051;28;19920;-89
2022/11/20 09:26:10;;;;;;;;;;;;;;;1.04;100.00;101132.97;5039226;28;20131;-89
2022/11/20 09:28:35;;;;;;;;;;;;;;;1.06;100.00;101128.69;5045091;28;19952;-89
2022/11/20 09:31:04;;;;;;;;;;;;;;;1.08;100.00;101121.81;5024471;28;20168;-89
2022/11/20 09:33:29;;;;;;;;;;;;;;;1.10;100.00;101109.78;5047838;28;20027;-89
2022/11/20 09:35:54;;;;;;;;;;;;;;;1.12;100.00;101105.47;5055621;28;19917;-89
2022/11/20 09:38:20;;;;;;;;;;;;;;;1.12;100.00;101103.75;5056345;28;19921;-89
2022/11/20 09:40:48;;;;;;;;;;;;;;;1.14;100.00;101096.88;5070634;28;19932;-88
2022/11/20 09:43:18;;;;;;;;;;;;;;;1.15;100.00;101085.69;5055404;28;20272;-89
2022/11/20 09:45:46;;;;;;;;;;;;;;;1.19;100.00;101081.41;5052395;28;20131;-89
2022/11/20 09:48:44;;;;;;;;;;;;;;;1.21;100.00;101081.41;5051680;28;19921;-89
2022/11/20 09:51:28;;;;;;;;;;;;;;;1.23;100.00;101080.56;5040011;28;19932;-88
2022/11/20 09:54:13;;;;;;;;;;;;;;;1.25;100.00;101078.84;5047691;28;19943;-89
2022/11/20 09:56:42;;;;;;;;;;;;;;;1.27;100.00;101074.53;5057073;28;20166;-88
2022/11/20 09:59:21;;;;;;;;;;;;;;;1.28;100.00;101063.38;5052664;28;19924;-89
2022/11/20 10:01:46;;;;;;;;;;;;;;;1.31;100.00;101068.53;5051529;28;19927;-90
2022/11/20 10:04:20;;;;;;;;;;;;;;;1.32;100.00;101059.91;5067202;28;20106;-89
2022/11/20 10:06:53;;;;;;;;;;;;;;;1.33;100.00;101051.34;5055561;28;19917;-89
2022/11/20 10:09:38;;;;;;;;;;;;;;;1.37;100.00;101046.19;5071233;28;20365;-89
2022/11/20 10:12:22;;;;;;;;;;;;;;;1.37;100.00;101035.84;5050828;28;20227;-89
2022/11/20 10:15:06;;;;;;;;;;;;;;;1.37;100.00;101030.69;5052967;28;19917;-89
2022/11/20 10:17:50;;;;;;;;;;;;;;;1.37;100.00;101023.81;5050725;28;20193;-89
2022/11/20 10:20:34;;;;;;;;;;;;;;;1.38;100.00;101016.91;5052613;28;19920;-89
2022/11/20 10:22:59;;;;;;;;;;;;;;;1.39;100.00;101008.31;5050880;28;20299;-89
2022/11/20 10:25:30;;;;;;;;;;;;;;;1.40;100.00;100999.72;5054378;28;19928;-88
2022/11/20 10:28:03;;;;;;;;;;;;;;;1.42;100.00;101003.16;5054966;28;19927;-88
2022/11/20 10:30:30;;;;;;;;;;;;;;;1.44;100.00;100998.88;5048240;28;20259;-87
2022/11/20 10:32:59;;;;;;;;;;;;;;;1.47;100.00;100999.69;5056324;28;19995;-88
2022/11/20 10:35:27;;;;;;;;;;;;;;;1.50;100.00;100996.28;5048212;28;19921;-88
2022/11/20 10:38:09;;;;;;;;;;;;;;;1.52;100.00;100979.91;5054768;28;20172;-88
2022/11/20 10:40:37;;;;;;;;;;;;;;;1.55;100.00;100973.91;5054587;28;20117;-87
2022/11/20 10:43:09;;;;;;;;;;;;;;;1.59;100.00;100985.09;5048468;28;20219;-88
2022/11/20 10:45:47;;;;;;;;;;;;;;;1.62;100.00;100982.47;5051963;28;20019;-88
2022/11/20 10:48:15;;;;;;;;;;;;;;;1.65;100.00;100985.91;5053069;28;20192;-88
2022/11/20 10:50:47;;;;;;;;;;;;;;;1.67;100.00;100981.63;5051981;28;19925;-87
2022/11/20 10:53:31;;;;;;;;;;;;;;;1.70;100.00;100976.44;5048399;28;19924;-88
2022/11/20 10:56:00;;;;;;;;;;;;;;;1.75;100.00;100957.50;5053754;28;20089;-88
2022/11/20 10:58:45;;;;;;;;;;;;;;;1.77;100.00;100954.06;5069463;28;19956;-87
2022/11/20 11:01:18;;;;;;;;;;;;;;;1.79;100.00;100941.16;5069960;28;20192;-88
2022/11/20 11:03:43;;;;;;;;;;;;;;;1.82;100.00;100938.53;5054889;28;19917;-87
2022/11/20 11:06:27;;;;;;;;;;;;;;;1.83;100.00;100930.78;5054109;28;20226;-88
2022/11/20 11:08:55;;;;;;;;;;;;;;;1.86;100.00;100929.94;5052381;28;19921;-88
2022/11/20 11:11:22;;;;;;;;;;;;;;;1.86;100.00;100930.78;5053342;28;19917;-87
2022/11/20 11:13:47;;;;;;;;;;;;;;;1.89;100.00;100927.31;5050229;28;20093;-88
2022/11/20 11:16:23;;;;;;;;;;;;;;;1.91;100.00;100917.84;5052139;28;19920;-88
2022/11/20 11:18:49;;;;;;;;;;;;;;;1.94;100.00;100906.66;5070522;28;20089;-88
2022/11/20 11:21:21;;;;;;;;;;;;;;;1.95;100.00;100903.19;5054101;28;19963;-87
2022/11/20 11:23:46;;;;;;;;;;;;;;;1.97;100.00;100897.16;5050357;28;19909;-88
2022/11/20 11:26:19;;;;;;;;;;;;;;;1.98;100.00;100898.88;5066978;28;19931;-87
2022/11/20 11:28:54;;;;;;;;;;;;;;;1.99;100.00;100876.50;5047369;28;19916;-88
2022/11/20 11:31:23;;;;;;;;;;;;;;;2.02;100.00;100871.31;5054494;28;19921;-88
2022/11/20 11:33:48;;;;;;;;;;;;;;;2.03;100.00;100863.53;5053614;28;20084;-88
2022/11/20 11:36:22;;;;;;;;;;;;;;;2.05;100.00;100853.22;5033070;28;20466;-87
2022/11/20 11:38:51;;;;;;;;;;;;;;;2.05;100.00;100832.53;5054958;28;19917;-88
2022/11/20 11:41:22;;;;;;;;;;;;;;;2.05;100.00;100820.47;5069901;28;19927;-88
2022/11/20 11:46:49;;;;;;;;;;;;;;;2.05;100.00;100807.56;5054510;28;20180;-87
2022/11/20 11:49:18;;;;;;;;;;;;;;;2.07;100.00;100808.44;5069716;28;19995;-88
2022/11/20 11:51:55;;;;;;;;;;;;;;;2.09;100.00;100805.81;5055240;28;19916;-88
2022/11/20 11:54:25;;;;;;;;;;;;;;;2.13;100.00;100801.47;5054246;28;20112;-87
2022/11/20 11:56:51;;;;;;;;;;;;;;;2.16;100.00;100802.31;5054796;28;20181;-88
2022/11/20 11:59:24;;;;;;;;;;;;;;;2.20;100.00;100810.91;5053779;28;19939;-88
2022/11/20 12:01:54;;;;;;;;;;;;;;;2.23;100.00;100811.75;5053665;28;19944;-88
2022/11/20 12:04:35;;;;;;;;;;;;;;;2.28;100.00;100807.41;5044595;28;20159;-88
2022/11/20 12:07:03;;;;;;;;;;;;;;;2.31;100.00;100801.38;5045867;28;19924;-87
2022/11/20 12:09:34;;;;;;;;;;;;;;;2.34;100.00;100793.59;5049762;28;19959;-88
2022/11/20 12:12:06;;;;;;;;;;;;;;;2.37;100.00;100788.41;5050280;28;19925;-88
2022/11/20 12:14:36;;;;;;;;;;;;;;;2.40;100.00;100782.34;5046501;28;19916;-88
2022/11/20 12:17:02;;;;;;;;;;;;;;;2.42;100.00;100784.06;5054433;28;19921;-87
2022/11/20 12:19:33;;;;;;;;;;;;;;;2.45;100.00;100781.44;5053844;28;19935;-88
2022/11/20 12:21:58;;;;;;;;;;;;;;;2.47;100.00;100776.25;5042571;28;19925;-88
2022/11/20 12:24:24;;;;;;;;;;;;;;;2.49;100.00;100780.56;5048738;28;20263;-88
2022/11/20 12:27:08;;;;;;;;;;;;;;;2.53;100.00;100783.97;5054417;28;19917;-87
2022/11/20 12:29:51;;;;;;;;;;;;;;;2.54;100.00;100758.97;5052106;28;19927;-88
2022/11/20 12:32:18;;;;;;;;;;;;;;;2.55;100.00;100760.66;5055724;28;19988;-88
2022/11/20 12:35:03;;;;;;;;;;;;;;;2.56;100.00;100752.06;5061072;28;19924;-88
2022/11/20 12:37:41;;;;;;;;;;;;;;;2.58;100.00;100751.16;5053067;28;19921;-88
2022/11/20 12:40:23;;;;;;;;;;;;;;;2.59;100.00;100745.13;5049764;28;20235;-88
2022/11/20 12:46:01;;;;;;;;;;;;;;;2.61;100.00;100722.69;5051365;28;20181;-88
2022/11/20 12:48:33;;;;;;;;;;;;;;;2.63;100.00;100733.03;5043099;28;19921;-88
2022/11/20 12:51:17;;;;;;;;;;;;;;;2.65;100.00;100720.94;5056371;28;19943;-88
2022/11/20 12:53:50;;;;;;;;;;;;;;;2.67;100.00;100714.03;5048710;28;19957;-88
2022/11/20 12:56:38;;;;;;;;;;;;;;;2.68;100.00;100706.25;5066872;28;19987;-88
2022/11/20 12:59:16;;;;;;;;;;;;;;;2.71;100.00;100695.03;5044210;28;19925;-88
2022/11/20 13:01:47;;;;;;;;;;;;;;;2.74;100.00;100696.72;5053442;28;19923;-88
2022/11/20 13:04:30;;;;;;;;;;;;;;;2.76;100.00;100689.81;5063578;28;19921;-88